Strona główna
METAR-TAF:

METAR-TAF

Lotnisko :

Angola, Indiana, Stany Zjednoczone

Szerokość geograficzna: 41-38-23N, Długość geograficzna: 085-05-01W, wysokość: 303 m

Aktualna obserwacja pogody

Raport powstał 13 minut temu, godzina 08:35 UTC
Wiatr 4 kt od południowy zachód
Temperatura 20°C
Wilgotność 88%
Ciśnienie 1014 hPa
Widzialność: 16.1 km
Przerywane chmury na wysokości 10000 ft

METAR: KANQ 280835Z AUTO 22004KT 10SM BKN100 20/18 A2994 RMK AO2

czas: 04:48 (08:48 UTC)


TAF: brakujący

Obserwacja i prognoza pogody dla ponad 4000 lotnisk (raport METAR i TAF).

Dostępne stacje oznaczono żółtymi i czerwonymi punktami na mapie.

Najedź kursorem aby zobaczyć nazwę stacji.

Kliknij aby zobaczyć obserwacje i prognozy pogody.

Aby zmienić mapę: kliknij na zielony przycisk z czarnym krzyżykiem, aby powiększyć; na zielony przycisk z myślnikiem, aby pomniejszyć; na zielone strzałki, aby przejść do map sąsiednich.


METAR-TAF: